Time;durP1;ratioP1;P1;durP2;ratioP2;P2;SDS_P1;SDS_P2;PMS_P1;PMS_P2;Temp;Humidity;BMP_temperature;BMP_pressure;BME280_temperature;BME280_humidity;BME280_pressure;Samples;Min_cycle;Max_cycle;Signal;HPM_P1;HPM_P2
2021/01/19 00:01:42;;;;;;;25.77;17.63;;;5.40;99.90;;;;;;4993731;28;20679;-77
2021/01/19 00:04:07;;;;;;;22.60;16.60;;;5.40;99.90;;;;;;5010094;28;20718;-77
2021/01/19 00:06:33;;;;;;;22.23;16.40;;;5.30;99.90;;;;;;4993621;28;20855;-77
2021/01/19 00:08:58;;;;;;;22.57;16.07;;;5.30;99.90;;;;;;4992722;28;20208;-77
2021/01/19 00:11:24;;;;;;;24.13;16.40;;;5.40;99.90;;;;;;5009788;28;20652;-77
2021/01/19 00:13:49;;;;;;;23.87;16.30;;;5.40;99.90;;;;;;5009948;28;20188;-77
2021/01/19 00:16:15;;;;;;;22.30;16.27;;;5.40;99.90;;;;;;4993163;28;20737;-77
2021/01/19 00:18:40;;;;;;;20.37;15.57;;;5.40;99.90;;;;;;5009741;28;20201;-77
2021/01/19 00:21:06;;;;;;;20.63;15.20;;;5.40;99.90;;;;;;4993500;28;20201;-77
2021/01/19 00:23:31;;;;;;;16.50;13.40;;;5.40;99.90;;;;;;4993718;28;20686;-77
2021/01/19 00:25:57;;;;;;;20.17;14.10;;;5.40;99.90;;;;;;5009747;28;20585;-77
2021/01/19 00:28:22;;;;;;;16.40;13.37;;;5.50;99.90;;;;;;5009460;28;20197;-77
2021/01/19 00:30:48;;;;;;;18.30;13.37;;;5.50;99.90;;;;;;4992995;28;20196;-77
2021/01/19 00:33:14;;;;;;;21.77;13.57;;;5.50;99.90;;;;;;4993132;28;20169;-77
2021/01/19 00:35:42;;;;;;;17.27;13.13;;;5.50;99.90;;;;;;5009536;28;20237;-77
2021/01/19 00:38:08;;;;;;;19.60;13.20;;;5.50;99.90;;;;;;5009118;28;20706;-77
2021/01/19 00:40:33;;;;;;;16.80;11.90;;;5.50;99.90;;;;;;5009018;28;20223;-77
2021/01/19 00:42:59;;;;;;;18.60;13.40;;;5.50;99.90;;;;;;4993190;28;20243;-77
2021/01/19 00:45:24;;;;;;;17.63;13.43;;;5.50;99.90;;;;;;4993095;28;20671;-77
2021/01/19 00:47:50;;;;;;;21.30;13.23;;;5.40;99.90;;;;;;4992633;28;20271;-77
2021/01/19 00:50:15;;;;;;;19.13;12.60;;;5.40;99.90;;;;;;4992582;28;20339;-77
2021/01/19 00:52:41;;;;;;;15.70;12.63;;;5.50;99.90;;;;;;4992942;28;20279;-77
2021/01/19 00:55:10;;;;;;;18.17;13.03;;;5.50;99.90;;;;;;5009126;28;20187;-77
2021/01/19 00:57:36;;;;;;;19.67;12.17;;;5.50;99.90;;;;;;4992641;28;20275;-77
2021/01/19 01:00:03;;;;;;;16.60;12.20;;;5.50;99.90;;;;;;5009097;28;20707;-77
2021/01/19 01:02:29;;;;;;;18.73;11.47;;;5.60;99.90;;;;;;5008788;28;20196;-77
2021/01/19 01:04:54;;;;;;;17.43;12.30;;;5.60;99.90;;;;;;4992470;28;20187;-77
2021/01/19 01:07:20;;;;;;;15.23;11.07;;;5.60;99.90;;;;;;4992288;28;20184;-77
2021/01/19 01:09:45;;;;;;;16.87;11.57;;;5.60;99.90;;;;;;5008746;28;20202;-77
2021/01/19 01:12:11;;;;;;;18.07;10.83;;;5.60;99.90;;;;;;5008826;28;20639;-77
2021/01/19 01:14:36;;;;;;;15.23;11.53;;;5.60;99.90;;;;;;5008913;28;20718;-77
2021/01/19 01:17:02;;;;;;;18.37;10.80;;;5.60;99.90;;;;;;4992272;28;20184;-77
2021/01/19 01:19:28;;;;;;;15.10;9.47;;;5.60;99.90;;;;;;5008646;28;20208;-77
2021/01/19 01:21:53;;;;;;;16.33;11.50;;;5.60;99.90;;;;;;5008602;28;20334;-77
2021/01/19 01:24:19;;;;;;;20.20;11.00;;;5.60;99.90;;;;;;4993155;28;20192;-77
2021/01/19 01:26:44;;;;;;;15.57;10.27;;;5.60;99.90;;;;;;4992552;28;20670;-77
2021/01/19 01:29:10;;;;;;;15.53;10.13;;;5.60;99.90;;;;;;5008603;28;20671;-77
2021/01/19 01:31:35;;;;;;;18.80;10.20;;;5.60;99.90;;;;;;5008507;28;20184;-77
2021/01/19 01:34:01;;;;;;;18.13;10.77;;;5.60;99.90;;;;;;4992201;28;20191;-77
2021/01/19 01:36:27;;;;;;;14.27;10.10;;;5.70;99.90;;;;;;4991795;28;20274;-77
2021/01/19 01:38:52;;;;;;;15.80;9.63;;;5.70;99.90;;;;;;4992064;28;20620;-77
2021/01/19 01:41:20;;;;;;;13.53;8.27;;;5.60;99.90;;;;;;5008031;28;20219;-77
2021/01/19 01:43:46;;;;;;;14.40;9.10;;;5.70;99.90;;;;;;5008364;28;20181;-77
2021/01/19 01:46:12;;;;;;;15.30;9.40;;;5.60;99.90;;;;;;5008416;28;20222;-77
2021/01/19 01:48:42;;;;;;;20.10;9.60;;;5.60;99.90;;;;;;5008474;28;20180;-77
2021/01/19 01:51:08;;;;;;;17.47;8.53;;;5.60;99.90;;;;;;5008480;28;20204;-77
2021/01/19 01:53:33;;;;;;;14.83;9.67;;;5.60;99.90;;;;;;5008417;28;20190;-77
2021/01/19 01:55:59;;;;;;;16.00;8.17;;;5.60;99.90;;;;;;5008049;28;20184;-77
2021/01/19 01:58:25;;;;;;;15.53;8.87;;;5.60;99.90;;;;;;5007833;28;20187;-77
2021/01/19 02:00:51;;;;;;;16.87;8.57;;;5.60;99.90;;;;;;4991275;28;20235;-77
2021/01/19 02:03:17;;;;;;;15.47;9.00;;;5.60;99.90;;;;;;5007963;28;20179;-77
2021/01/19 02:05:43;;;;;;;12.80;7.40;;;5.60;99.90;;;;;;5007951;28;20267;-77
2021/01/19 02:08:19;;;;;;;17.17;7.57;;;5.60;99.90;;;;;;5007868;28;20263;-77
2021/01/19 02:11:10;;;;;;;15.53;7.83;;;5.60;99.90;;;;;;5006398;28;20250;-77
2021/01/19 02:14:07;;;;;;;17.40;8.17;;;5.50;99.90;;;;;;5008036;28;20224;-77
2021/01/19 02:16:53;;;;;;;14.43;6.93;;;5.50;99.90;;;;;;4963509;28;20200;-77
2021/01/19 02:19:36;;;;;;;13.97;6.47;;;5.50;99.90;;;;;;5005419;28;20644;-75
2021/01/19 02:22:38;;;;;;;12.80;6.40;;;5.40;99.90;;;;;;4992261;28;20215;-75
2021/01/19 02:25:41;;;;;;;16.07;6.23;;;5.40;99.90;;;;;;4991378;28;20180;-76
2021/01/19 02:28:39;;;;;;;11.97;6.53;;;5.50;99.90;;;;;;4990975;28;20192;-77
2021/01/19 02:31:05;;;;;;;13.90;5.63;;;5.50;99.90;;;;;;5005126;28;20196;-77
2021/01/19 02:33:39;;;;;;;14.20;5.73;;;5.50;99.90;;;;;;4996585;28;20180;-76
2021/01/19 02:36:12;;;;;;;8.93;3.93;;;5.50;99.90;;;;;;4995910;28;20193;-77
2021/01/19 02:38:48;;;;;;;6.70;3.47;;;5.50;99.90;;;;;;5011624;28;20181;-77
2021/01/19 02:41:13;;;;;;;14.23;4.93;;;5.50;99.90;;;;;;5011227;28;20306;-77
2021/01/19 02:43:39;;;;;;;9.27;4.40;;;5.60;99.90;;;;;;5011240;28;20251;-76
2021/01/19 02:46:04;;;;;;;9.93;3.73;;;5.50;99.90;;;;;;5011310;28;20168;-76
2021/01/19 02:48:30;;;;;;;9.23;4.27;;;5.50;99.90;;;;;;5011359;28;20530;-76
2021/01/19 02:50:56;;;;;;;9.53;3.90;;;5.60;99.90;;;;;;5011267;28;20204;-76
2021/01/19 02:53:21;;;;;;;11.00;4.33;;;5.50;99.90;;;;;;5011282;28;20180;-76
2021/01/19 02:55:47;;;;;;;12.37;3.93;;;5.50;99.90;;;;;;5011341;28;20794;-77
2021/01/19 02:58:24;;;;;;;10.50;3.50;;;5.50;99.90;;;;;;5010794;28;20553;-76
2021/01/19 03:01:01;;;;;;;13.13;3.73;;;5.50;99.90;;;;;;4994612;28;20200;-77
2021/01/19 03:03:27;;;;;;;11.27;3.70;;;5.60;99.90;;;;;;4994673;28;20199;-76
2021/01/19 03:05:53;;;;;;;11.87;3.30;;;5.60;99.90;;;;;;4994527;28;20188;-75
2021/01/19 03:08:19;;;;;;;9.60;2.87;;;5.60;99.90;;;;;;5010895;28;20647;-76
2021/01/19 03:10:44;;;;;;;8.77;3.30;;;5.50;99.90;;;;;;5010901;28;20204;-76
2021/01/19 03:13:13;;;;;;;8.90;2.77;;;5.50;99.90;;;;;;4995886;28;20266;-77
2021/01/19 03:15:39;;;;;;;7.13;2.80;;;5.50;99.90;;;;;;5010887;28;20184;-76
2021/01/19 03:18:06;;;;;;;6.20;2.50;;;5.50;99.90;;;;;;5010555;28;20222;-76
2021/01/19 03:20:32;;;;;;;9.27;2.60;;;5.50;99.90;;;;;;4994478;28;20209;-76
2021/01/19 03:22:57;;;;;;;3.80;2.03;;;5.50;99.90;;;;;;5010723;28;20211;-76
2021/01/19 03:25:23;;;;;;;7.63;2.40;;;5.60;99.90;;;;;;4994389;28;20180;-76
2021/01/19 03:27:48;;;;;;;8.27;2.47;;;5.60;99.90;;;;;;5009726;28;20176;-76
2021/01/19 03:30:14;;;;;;;10.93;2.27;;;5.50;99.90;;;;;;4994012;28;20619;-76
2021/01/19 03:32:40;;;;;;;5.20;2.00;;;5.50;99.90;;;;;;5010955;28;20288;-76
2021/01/19 03:35:06;;;;;;;4.63;2.10;;;5.50;99.90;;;;;;4994229;28;20290;-76
2021/01/19 03:37:32;;;;;;;5.87;2.30;;;5.60;99.90;;;;;;5010224;28;20180;-76
2021/01/19 03:39:57;;;;;;;6.50;2.17;;;5.60;99.90;;;;;;5010318;28;20211;-76
2021/01/19 03:42:23;;;;;;;8.37;2.37;;;5.60;99.90;;;;;;5010017;28;20200;-77
2021/01/19 03:44:48;;;;;;;3.67;1.97;;;5.60;99.90;;;;;;5009376;28;20311;-76
2021/01/19 03:47:14;;;;;;;6.87;2.57;;;5.60;99.90;;;;;;5010106;28;20659;-75
2021/01/19 03:49:39;;;;;;;6.10;2.00;;;5.60;99.90;;;;;;4993534;28;20584;-77
2021/01/19 03:52:05;;;;;;;5.30;1.70;;;5.60;99.90;;;;;;4994014;28;20559;-77
2021/01/19 03:54:31;;;;;;;10.17;2.07;;;5.60;99.90;;;;;;5010028;28;20543;-77
2021/01/19 03:56:56;;;;;;;7.90;2.27;;;5.60;99.90;;;;;;4993567;28;20564;-75
2021/01/19 03:59:22;;;;;;;4.67;2.13;;;5.60;99.90;;;;;;5009708;28;20191;-76
2021/01/19 04:01:49;;;;;;;5.83;2.20;;;5.50;99.90;;;;;;5009917;28;20200;-76
2021/01/19 04:04:14;;;;;;;9.20;2.33;;;5.50;99.90;;;;;;5009672;28;20172;-76
2021/01/19 04:06:40;;;;;;;7.67;2.30;;;5.50;99.90;;;;;;5009855;28;20670;-76
2021/01/19 04:09:05;;;;;;;4.83;1.87;;;5.50;99.90;;;;;;5009763;28;20180;-77
2021/01/19 04:11:31;;;;;;;5.80;1.90;;;5.40;99.90;;;;;;5009768;28;20685;-76
2021/01/19 04:13:56;;;;;;;6.93;1.70;;;5.50;99.90;;;;;;5009925;28;20640;-76
2021/01/19 04:16:22;;;;;;;5.80;1.90;;;5.50;99.90;;;;;;5009616;28;20177;-76
2021/01/19 04:18:47;;;;;;;8.97;1.60;;;5.40;99.90;;;;;;5009746;28;20168;-77
2021/01/19 04:21:13;;;;;;;8.27;1.93;;;5.50;99.90;;;;;;4993123;28;20223;-76
2021/01/19 04:23:39;;;;;;;3.80;1.50;;;5.50;99.90;;;;;;5009792;28;20211;-76
2021/01/19 04:26:04;;;;;;;7.43;1.90;;;5.50;99.90;;;;;;5032689;23;20230;-81
2021/01/19 04:28:30;;;;;;;3.80;1.60;;;5.50;99.90;;;;;;4999810;28;20229;-81
2021/01/19 04:30:56;;;;;;;5.83;1.80;;;5.50;99.90;;;;;;4984523;28;20189;-82
2021/01/19 04:33:21;;;;;;;9.03;1.90;;;5.50;99.90;;;;;;5000725;28;20211;-80
2021/01/19 04:35:47;;;;;;;5.03;1.70;;;5.50;99.90;;;;;;4980777;28;20238;-80
2021/01/19 04:38:12;;;;;;;6.07;2.00;;;5.40;99.90;;;;;;4980191;28;20183;-80
2021/01/19 04:40:38;;;;;;;3.97;1.70;;;5.40;99.90;;;;;;4997558;28;20226;-82
2021/01/19 04:43:04;;;;;;;6.80;1.97;;;5.40;99.90;;;;;;4997006;28;20356;-82
2021/01/19 04:45:30;;;;;;;7.30;2.07;;;5.30;99.90;;;;;;4998865;28;20180;-82
2021/01/19 04:47:56;;;;;;;7.33;2.20;;;5.30;99.90;;;;;;4981422;28;20187;-82
2021/01/19 04:50:21;;;;;;;6.57;2.27;;;5.30;99.90;;;;;;4996973;28;20176;-80
2021/01/19 04:52:47;;;;;;;7.70;2.17;;;5.20;99.90;;;;;;4980804;28;20185;-80
2021/01/19 04:55:17;;;;;;;5.50;2.40;;;5.10;99.90;;;;;;4998196;28;20727;-80
2021/01/19 04:57:42;;;;;;;7.87;2.20;;;5.10;99.90;;;;;;4998473;28;20187;-83
2021/01/19 05:00:15;;;;;;;7.00;1.90;;;5.10;99.90;;;;;;4981144;28;20179;-80
2021/01/19 05:02:50;;;;;;;5.90;2.17;;;5.10;99.90;;;;;;4981968;28;20207;-82
2021/01/19 05:05:32;;;;;;;8.40;2.53;;;5.00;99.90;;;;;;5013420;28;20646;-82
2021/01/19 05:08:18;;;;;;;7.80;2.07;;;5.00;99.90;;;;;;4996752;28;20262;-81
2021/01/19 05:11:27;;;;;;;7.10;2.40;;;5.00;99.90;;;;;;4998217;28;20207;-81
2021/01/19 05:14:00;;;;;;;7.20;2.20;;;4.90;99.90;;;;;;5013876;28;20678;-82
2021/01/19 05:16:30;;;;;;;7.70;1.90;;;4.90;99.90;;;;;;4998028;28;20205;-82
2021/01/19 05:18:56;;;;;;;8.03;2.30;;;4.90;99.90;;;;;;4998248;28;20227;-80
2021/01/19 05:21:22;;;;;;;5.03;1.97;;;4.90;99.90;;;;;;4981702;28;20211;-80
2021/01/19 05:23:48;;;;;;;7.87;2.20;;;4.80;99.90;;;;;;4997110;28;20176;-81
2021/01/19 05:26:17;;;;;;;3.73;1.93;;;4.80;99.90;;;;;;4997759;28;20219;-81
2021/01/19 05:28:50;;;;;;;8.20;2.63;;;4.80;99.90;;;;;;4997122;28;20214;-80
2021/01/19 05:31:16;;;;;;;4.10;1.90;;;4.80;99.90;;;;;;4997999;28;20169;-81
2021/01/19 05:33:58;;;;;;;7.50;2.30;;;4.80;99.90;;;;;;5015063;28;20204;-81
2021/01/19 05:36:33;;;;;;;4.40;2.03;;;4.80;99.90;;;;;;4999391;28;20211;-81
2021/01/19 05:38:58;;;;;;;7.57;2.63;;;4.80;99.90;;;;;;4998619;28;20186;-80
2021/01/19 05:41:26;;;;;;;10.73;3.30;;;4.70;99.90;;;;;;4980375;28;20200;-80
2021/01/19 05:43:53;;;;;;;11.40;2.80;;;4.70;99.90;;;;;;4999110;28;20168;-80
2021/01/19 05:46:26;;;;;;;12.13;2.53;;;4.70;99.90;;;;;;4996643;28;20226;-80
2021/01/19 05:48:58;;;;;;;7.50;2.60;;;4.70;99.90;;;;;;4977779;28;20180;-88
2021/01/19 05:51:31;;;;;;;7.83;2.40;;;4.70;99.90;;;;;;4978399;28;20168;-86
2021/01/19 05:53:57;;;;;;;10.37;2.60;;;4.70;99.90;;;;;;4995996;28;20587;-85
2021/01/19 05:56:23;;;;;;;10.07;2.37;;;4.70;99.90;;;;;;4996419;28;20687;-88
2021/01/19 05:58:49;;;;;;;9.07;2.70;;;4.70;99.90;;;;;;4994916;28;20191;-87
2021/01/19 06:01:31;;;;;;;9.37;2.87;;;4.70;99.90;;;;;;4997728;28;20200;-82
2021/01/19 06:04:01;;;;;;;7.63;2.20;;;4.70;99.90;;;;;;4999636;28;20172;-88
2021/01/19 06:06:27;;;;;;;8.50;2.20;;;4.70;99.90;;;;;;5006038;28;20264;-86
2021/01/19 06:09:03;;;;;;;7.00;3.13;;;4.70;99.90;;;;;;4999657;28;20251;-85
2021/01/19 06:11:28;;;;;;;7.47;2.77;;;4.70;99.90;;;;;;4999912;28;20176;-84
2021/01/19 06:13:55;;;;;;;7.37;2.80;;;4.70;99.90;;;;;;4998864;28;20541;-85
2021/01/19 06:16:24;;;;;;;4.80;2.47;;;4.70;99.90;;;;;;4997962;28;20192;-81
2021/01/19 06:18:50;;;;;;;5.07;2.47;;;4.70;99.90;;;;;;4997962;28;20176;-85
2021/01/19 06:21:26;;;;;;;7.90;2.77;;;4.70;99.90;;;;;;4998433;28;20230;-83
2021/01/19 06:23:52;;;;;;;7.27;3.00;;;4.70;99.90;;;;;;4997160;28;20646;-83
2021/01/19 06:26:17;;;;;;;7.90;2.73;;;4.70;99.90;;;;;;4997211;28;20247;-82
2021/01/19 06:28:43;;;;;;;4.70;2.73;;;4.70;99.90;;;;;;4998497;28;20179;-82
2021/01/19 06:31:15;;;;;;;6.43;2.47;;;4.70;99.90;;;;;;4997716;28;20180;-84
2021/01/19 06:33:41;;;;;;;9.00;3.40;;;4.60;99.90;;;;;;4997347;28;20231;-82
2021/01/19 06:36:08;;;;;;;9.47;3.30;;;4.60;99.90;;;;;;4998662;28;20663;-83
2021/01/19 06:38:33;;;;;;;6.47;2.57;;;4.60;99.90;;;;;;4997711;28;20187;-79
2021/01/19 06:41:00;;;;;;;7.00;2.80;;;4.60;99.90;;;;;;4994723;28;20309;-80
2021/01/19 06:43:26;;;;;;;7.47;3.27;;;4.50;99.90;;;;;;4996493;28;20173;-82
2021/01/19 06:45:51;;;;;;;6.70;2.80;;;4.50;99.90;;;;;;4994409;28;20738;-82
2021/01/19 06:48:17;;;;;;;12.83;3.13;;;4.50;99.90;;;;;;4994345;28;20211;-79
2021/01/19 06:50:42;;;;;;;7.07;3.13;;;4.50;99.90;;;;;;4995641;28;20636;-82
2021/01/19 06:53:15;;;;;;;8.30;2.87;;;4.50;99.90;;;;;;4994884;28;20270;-80
2021/01/19 06:56:01;;;;;;;9.67;3.40;;;4.40;99.90;;;;;;4992428;28;20212;-81
2021/01/19 06:58:38;;;;;;;9.90;3.07;;;4.40;99.90;;;;;;4985355;28;20226;-80
2021/01/19 07:01:04;;;;;;;8.67;3.10;;;4.40;99.90;;;;;;4994641;28;20284;-79
2021/01/19 07:03:29;;;;;;;6.80;2.87;;;4.30;99.90;;;;;;4996505;28;20211;-82
2021/01/19 07:06:01;;;;;;;8.10;3.27;;;4.30;99.90;;;;;;4994043;28;20213;-79
2021/01/19 07:08:44;;;;;;;7.87;2.67;;;4.40;99.90;;;;;;4993945;28;20172;-80
2021/01/19 07:11:36;;;;;;;9.77;2.70;;;4.40;99.90;;;;;;5010115;28;20176;-78
2021/01/19 07:14:09;;;;;;;11.70;3.03;;;4.40;99.90;;;;;;4988493;28;20192;-77
2021/01/19 07:16:35;;;;;;;6.40;2.40;;;4.30;99.90;;;;;;4992615;28;20227;-78
2021/01/19 07:19:19;;;;;;;6.83;3.07;;;4.30;99.90;;;;;;4995673;28;20172;-78
2021/01/19 07:22:06;;;;;;;8.10;3.60;;;4.40;99.90;;;;;;4997493;28;20230;-75
2021/01/19 07:24:45;;;;;;;9.20;3.60;;;4.40;99.90;;;;;;5011701;28;20251;-77
2021/01/19 07:27:11;;;;;;;10.23;3.47;;;4.30;99.90;;;;;;4994034;28;20207;-76
2021/01/19 07:29:37;;;;;;;7.07;3.47;;;4.40;99.90;;;;;;4979343;28;20176;-77
2021/01/19 07:32:13;;;;;;;10.73;4.10;;;4.30;99.90;;;;;;4979309;28;20180;-80
2021/01/19 07:34:39;;;;;;;8.23;3.63;;;4.30;99.90;;;;;;4982770;28;20199;-79
2021/01/19 07:37:06;;;;;;;7.13;3.87;;;4.30;99.90;;;;;;4998196;28;20259;-79
2021/01/19 07:39:33;;;;;;;7.50;4.00;;;4.30;99.90;;;;;;4978839;28;20192;-77
2021/01/19 07:42:15;;;;;;;10.33;4.23;;;4.40;99.90;;;;;;4979600;28;20575;-80
2021/01/19 07:44:42;;;;;;;9.27;4.00;;;4.40;99.90;;;;;;4996156;28;20172;-81
2021/01/19 07:47:09;;;;;;;10.03;4.17;;;4.40;99.90;;;;;;4997066;28;20702;-80
2021/01/19 07:49:34;;;;;;;6.83;3.73;;;4.40;99.90;;;;;;4997045;28;20186;-80
2021/01/19 07:52:10;;;;;;;7.80;4.10;;;4.50;99.90;;;;;;4994603;28;20184;-78
2021/01/19 07:54:36;;;;;;;5.47;3.10;;;4.40;99.90;;;;;;4993505;28;20247;-80
2021/01/19 07:57:17;;;;;;;5.60;4.03;;;4.50;99.90;;;;;;4994821;28;20224;-79
2021/01/19 07:59:43;;;;;;;10.50;3.73;;;4.50;99.90;;;;;;4996991;28;20563;-81
2021/01/19 08:02:09;;;;;;;12.53;4.30;;;4.50;99.90;;;;;;4996581;28;20661;-80
2021/01/19 08:04:36;;;;;;;10.40;4.37;;;4.50;99.90;;;;;;4996248;28;20196;-80
2021/01/19 08:07:19;;;;;;;6.60;3.90;;;4.50;99.90;;;;;;5013058;28;20211;-79
2021/01/19 08:09:44;;;;;;;6.90;3.73;;;4.50;99.90;;;;;;4979693;28;20655;-77
2021/01/19 08:12:17;;;;;;;8.13;4.10;;;4.50;99.90;;;;;;4996518;28;20186;-77
2021/01/19 08:14:44;;;;;;;8.27;3.93;;;4.60;99.90;;;;;;4999036;28;20194;-80
2021/01/19 08:17:09;;;;;;;5.50;3.70;;;4.60;99.90;;;;;;4981515;28;20212;-83
2021/01/19 08:19:42;;;;;;;6.83;4.17;;;4.60;99.90;;;;;;4999961;28;20195;-89
2021/01/19 08:22:08;;;;;;;8.70;4.03;;;4.60;99.90;;;;;;5000951;28;20208;-86
2021/01/19 08:24:34;;;;;;;9.03;3.87;;;4.60;99.90;;;;;;4998362;28;20176;-81
2021/01/19 08:26:59;;;;;;;14.37;7.10;;;4.60;99.90;;;;;;4984739;28;20270;-86
2021/01/19 08:29:25;;;;;;;14.23;7.27;;;4.70;99.90;;;;;;5001217;28;20180;-84
2021/01/19 08:31:58;;;;;;;22.77;11.40;;;4.70;99.90;;;;;;4987928;28;20180;-84
2021/01/19 08:34:26;;;;;;;20.00;10.23;;;4.70;99.90;;;;;;4977299;28;20239;-85
2021/01/19 08:36:52;;;;;;;81.87;36.03;;;4.70;99.90;;;;;;4975632;28;20640;-84
2021/01/19 08:39:18;;;;;;;40.77;24.70;;;4.70;99.90;;;;;;4986070;28;20188;-85
2021/01/19 08:41:49;;;;;;;22.13;15.67;;;4.70;99.90;;;;;;5001498;28;20200;-84
2021/01/19 08:44:14;;;;;;;9.87;6.93;;;4.80;99.90;;;;;;5002436;28;20169;-85
2021/01/19 08:46:40;;;;;;;12.07;9.17;;;4.80;99.90;;;;;;5005689;28;20703;-85
2021/01/19 08:49:07;;;;;;;9.20;5.20;;;4.80;99.90;;;;;;5003459;28;20188;-85
2021/01/19 08:51:33;;;;;;;7.80;4.87;;;4.80;99.90;;;;;;4989695;28;20180;-87
2021/01/19 08:53:59;;;;;;;5.07;4.03;;;4.80;99.90;;;;;;5010157;28;20176;-86
2021/01/19 08:56:25;;;;;;;5.50;4.27;;;4.80;99.90;;;;;;5010816;28;20200;-86
2021/01/19 08:58:51;;;;;;;5.97;4.30;;;4.90;99.90;;;;;;5005005;28;20655;-83
2021/01/19 09:01:17;;;;;;;7.90;6.30;;;5.00;99.90;;;;;;4994465;28;20190;-86
2021/01/19 09:03:52;;;;;;;5.70;4.70;;;4.90;99.90;;;;;;5003724;28;20180;-86
2021/01/19 09:06:18;;;;;;;7.43;5.13;;;4.90;99.90;;;;;;5007773;28;20188;-83
2021/01/19 09:08:43;;;;;;;6.43;4.50;;;5.00;99.90;;;;;;5006728;28;20660;-85
2021/01/19 09:11:10;;;;;;;6.33;4.40;;;5.00;99.90;;;;;;5006718;28;20184;-86
2021/01/19 09:13:39;;;;;;;3.90;3.50;;;5.00;99.90;;;;;;5010335;28;20176;-85
2021/01/19 09:16:05;;;;;;;8.47;6.87;;;5.00;99.90;;;;;;5006788;28;20198;-87
2021/01/19 09:18:31;;;;;;;6.60;5.60;;;5.10;99.90;;;;;;4983703;28;20247;-82
2021/01/19 09:21:10;;;;;;;22.80;16.33;;;5.10;99.90;;;;;;4997078;28;20220;-83
2021/01/19 09:23:36;;;;;;;13.97;10.70;;;5.10;99.90;;;;;;4977361;28;20540;-79
2021/01/19 09:26:06;;;;;;;41.40;30.40;;;5.20;99.90;;;;;;4991301;28;20355;-81
2021/01/19 09:28:35;;;;;;;13.13;9.93;;;5.20;99.90;;;;;;4994843;28;20177;-83
2021/01/19 09:31:13;;;;;;;17.40;12.53;;;5.20;99.90;;;;;;4995877;28;20183;-80
2021/01/19 09:33:39;;;;;;;26.53;16.47;;;5.20;99.90;;;;;;5012740;28;20739;-79
2021/01/19 09:36:06;;;;;;;19.17;13.40;;;5.20;99.90;;;;;;4996393;28;20196;-82
2021/01/19 09:38:32;;;;;;;10.37;6.67;;;5.30;99.90;;;;;;4997366;28;20192;-80
2021/01/19 09:40:57;;;;;;;6.83;5.30;;;5.30;99.90;;;;;;4997774;28;20164;-81
2021/01/19 09:43:23;;;;;;;9.90;7.07;;;5.30;99.90;;;;;;4998116;28;20200;-81
2021/01/19 09:45:48;;;;;;;14.60;11.30;;;5.30;99.90;;;;;;4994848;28;20196;-78
2021/01/19 09:48:14;;;;;;;5.17;3.80;;;5.40;99.90;;;;;;5000112;28;20180;-78
2021/01/19 09:50:40;;;;;;;13.77;6.17;;;5.30;99.90;;;;;;4993547;28;20186;-83
2021/01/19 09:53:05;;;;;;;10.47;7.63;;;5.40;99.90;;;;;;4984435;28;20177;-80
2021/01/19 09:55:31;;;;;;;8.33;5.97;;;5.40;99.90;;;;;;5000927;28;20187;-79
2021/01/19 09:58:00;;;;;;;8.70;7.47;;;5.40;99.90;;;;;;4988478;28;20177;-81
2021/01/19 10:00:27;;;;;;;12.80;9.50;;;5.40;99.90;;;;;;4990330;28;20663;-80
2021/01/19 10:02:53;;;;;;;15.63;11.07;;;5.40;99.90;;;;;;4988651;28;20233;-78
2021/01/19 10:05:20;;;;;;;11.37;8.50;;;5.40;99.90;;;;;;5007275;28;20180;-78
2021/01/19 10:07:46;;;;;;;7.20;5.77;;;5.40;99.90;;;;;;4989225;28;20239;-79
2021/01/19 10:10:13;;;;;;;6.73;4.90;;;5.40;99.90;;;;;;5003100;28;20203;-80
2021/01/19 10:12:39;;;;;;;30.67;18.97;;;5.40;99.90;;;;;;5002135;28;20204;-77
2021/01/19 10:15:09;;;;;;;11.40;8.10;;;5.50;99.90;;;;;;5002726;28;20270;-79
2021/01/19 10:17:35;;;;;;;16.87;11.10;;;5.50;99.90;;;;;;5004557;28;20331;-79
2021/01/19 10:20:14;;;;;;;10.03;6.27;;;5.50;99.90;;;;;;5006178;28;20180;-78
2021/01/19 10:22:42;;;;;;;10.47;7.83;;;5.60;99.90;;;;;;4992650;28;20581;-79
2021/01/19 10:25:08;;;;;;;19.50;14.00;;;5.60;99.90;;;;;;4976664;28;20195;-79
2021/01/19 10:27:43;;;;;;;11.90;7.97;;;5.60;99.90;;;;;;4993097;28;20220;-80
2021/01/19 10:30:10;;;;;;;10.17;5.63;;;5.60;99.90;;;;;;4991641;28;20186;-76
2021/01/19 10:32:49;;;;;;;11.70;7.50;;;5.70;99.90;;;;;;4975459;28;20184;-76
2021/01/19 10:35:37;;;;;;;19.87;12.37;;;5.70;99.90;;;;;;4991573;28;20622;-78
2021/01/19 10:38:07;;;;;;;15.70;10.53;;;5.80;99.90;;;;;;4991282;28;20210;-77
2021/01/19 10:40:33;;;;;;;13.80;9.80;;;5.70;99.90;;;;;;5022269;28;20243;-84
2021/01/19 10:43:08;;;;;;;11.63;8.37;;;5.90;99.90;;;;;;5003216;28;20204;-83
2021/01/19 10:45:34;;;;;;;10.13;6.80;;;5.90;99.90;;;;;;5003055;28;20180;-82
2021/01/19 10:48:02;;;;;;;30.97;19.70;;;5.90;99.90;;;;;;5001801;28;20174;-83
2021/01/19 10:50:29;;;;;;;11.60;8.43;;;5.90;99.90;;;;;;5001432;28;20183;-86
2021/01/19 10:52:59;;;;;;;20.97;13.57;;;6.00;99.90;;;;;;5002786;28;20211;-85
2021/01/19 10:55:25;;;;;;;30.20;18.20;;;6.00;99.90;;;;;;5024889;28;20168;-84
2021/01/19 10:57:55;;;;;;;20.70;13.10;;;6.00;99.90;;;;;;4992836;28;20593;-85
2021/01/19 11:00:21;;;;;;;12.83;8.30;;;6.00;99.90;;;;;;4989257;28;20754;-84
2021/01/19 11:02:47;;;;;;;5.67;4.20;;;6.10;99.90;;;;;;4997960;28;20279;-77
2021/01/19 11:05:12;;;;;;;4.80;3.07;;;6.10;99.90;;;;;;4997373;28;20180;-81
2021/01/19 11:07:43;;;;;;;3.47;3.17;;;6.10;99.90;;;;;;5000393;28;20216;-82
2021/01/19 11:10:09;;;;;;;6.90;4.13;;;6.10;99.90;;;;;;5004036;28;20647;-86
2021/01/19 11:12:34;;;;;;;3.33;2.83;;;6.20;99.90;;;;;;5002267;28;20187;-82
2021/01/19 11:15:00;;;;;;;6.17;5.10;;;6.20;99.90;;;;;;5001061;28;20184;-83
2021/01/19 11:17:26;;;;;;;6.77;5.07;;;6.20;99.90;;;;;;5002605;28;20278;-85
2021/01/19 11:19:51;;;;;;;14.80;9.60;;;6.20;99.90;;;;;;4984125;28;20652;-84
2021/01/19 11:22:17;;;;;;;22.70;15.90;;;6.20;99.90;;;;;;5000463;28;20214;-83
2021/01/19 11:24:42;;;;;;;15.37;12.00;;;6.30;99.90;;;;;;4999918;28;20220;-83
2021/01/19 11:27:08;;;;;;;14.63;10.67;;;6.30;99.90;;;;;;4986075;28;20690;-81
2021/01/19 11:29:33;;;;;;;15.60;11.03;;;6.30;99.90;;;;;;4999017;28;20791;-88
2021/01/19 11:31:59;;;;;;;7.93;5.10;;;6.30;99.90;;;;;;4998363;28;20687;-77
2021/01/19 11:34:25;;;;;;;5.80;4.70;;;6.40;99.90;;;;;;4998976;28;20656;-81
2021/01/19 11:36:50;;;;;;;18.63;13.30;;;6.40;99.90;;;;;;4992475;28;20287;-82
2021/01/19 11:39:16;;;;;;;7.80;5.53;;;6.40;99.90;;;;;;4978744;28;20188;-83
2021/01/19 11:41:42;;;;;;;7.60;6.80;;;6.50;99.90;;;;;;4978254;28;20200;-81
2021/01/19 11:44:07;;;;;;;6.60;5.83;;;6.50;99.90;;;;;;4978924;28;20708;-83
2021/01/19 11:46:33;;;;;;;11.60;8.63;;;6.50;99.90;;;;;;4964316;28;20193;-84
2021/01/19 11:49:00;;;;;;;5.33;4.83;;;6.50;99.90;;;;;;4964801;28;20173;-85
2021/01/19 11:51:28;;;;;;;7.00;4.40;;;6.60;99.90;;;;;;4966487;28;20896;-83
2021/01/19 11:53:54;;;;;;;11.07;8.03;;;6.70;99.90;;;;;;4979750;28;20173;-84
2021/01/19 11:56:20;;;;;;;7.83;6.10;;;6.70;99.90;;;;;;4978980;28;20259;-86
2021/01/19 11:58:46;;;;;;;6.93;4.73;;;6.80;99.90;;;;;;4980571;28;20234;-85
2021/01/19 12:01:21;;;;;;;6.33;5.57;;;6.90;99.90;;;;;;4989913;28;20200;-80
2021/01/19 12:03:47;;;;;;;4.90;4.50;;;6.90;99.90;;;;;;4976986;28;20260;-83
2021/01/19 12:06:13;;;;;;;6.80;5.40;;;6.90;99.90;;;;;;4994684;28;20231;-80
2021/01/19 12:08:39;;;;;;;6.40;5.47;;;6.90;99.90;;;;;;4995554;28;20175;-83
2021/01/19 12:11:10;;;;;;;4.53;4.13;;;6.90;99.90;;;;;;4984898;28;20174;-79
2021/01/19 12:13:37;;;;;;;6.10;5.43;;;6.90;99.90;;;;;;4996760;28;20228;-81
2021/01/19 12:16:03;;;;;;;6.40;4.97;;;6.90;99.90;;;;;;4995633;28;20200;-84
2021/01/19 12:18:28;;;;;;;5.93;4.63;;;7.00;99.90;;;;;;4989958;28;20621;-80
2021/01/19 12:20:54;;;;;;;4.27;3.83;;;7.00;99.90;;;;;;4994223;28;20234;-79
2021/01/19 12:23:19;;;;;;;5.57;4.60;;;7.00;99.90;;;;;;4977558;28;20242;-82
2021/01/19 12:25:45;;;;;;;4.43;3.73;;;7.10;99.90;;;;;;4994415;28;20204;-84
2021/01/19 12:28:11;;;;;;;5.03;3.73;;;7.10;99.90;;;;;;4994759;28;20596;-82
2021/01/19 12:30:36;;;;;;;7.13;4.90;;;7.10;99.90;;;;;;4994750;28;20582;-81
2021/01/19 12:33:02;;;;;;;3.40;3.10;;;7.10;99.90;;;;;;4994931;28;20653;-83
2021/01/19 12:35:28;;;;;;;4.93;4.03;;;7.30;99.90;;;;;;4995073;28;20235;-84
2021/01/19 12:37:56;;;;;;;12.70;8.93;;;7.20;99.90;;;;;;4994165;28;20180;-82
2021/01/19 12:40:22;;;;;;;11.40;6.10;;;7.30;99.90;;;;;;4995808;28;20214;-84
2021/01/19 12:42:48;;;;;;;3.90;3.50;;;7.40;99.90;;;;;;4978272;28;20208;-85
2021/01/19 12:45:14;;;;;;;7.73;6.90;;;7.30;99.90;;;;;;4978244;28;20648;-84
2021/01/19 12:47:39;;;;;;;9.43;6.60;;;7.30;99.90;;;;;;4977118;28;20297;-81
2021/01/19 12:50:05;;;;;;;4.70;3.90;;;7.30;99.90;;;;;;4976958;28;20187;-84
2021/01/19 12:52:31;;;;;;;8.27;6.80;;;7.30;99.90;;;;;;4976988;28;20218;-82
2021/01/19 12:54:56;;;;;;;10.33;9.27;;;7.50;99.90;;;;;;4993931;28;20640;-83
2021/01/19 12:57:22;;;;;;;6.60;5.50;;;7.40;99.90;;;;;;4994044;28;20209;-84